createdAt,value
2024-04-30T00:04:25.553Z,16.86
2024-04-30T00:09:27.488Z,16.73
2024-04-30T00:14:29.787Z,16.64
2024-04-30T00:19:31.852Z,16.60
2024-04-30T00:24:33.824Z,16.78
2024-04-30T00:29:35.963Z,16.77
2024-04-30T00:34:42.343Z,16.69
2024-04-30T00:39:44.305Z,16.77
2024-04-30T00:44:46.281Z,16.54
2024-04-30T00:49:49.127Z,16.56
2024-04-30T00:54:51.185Z,16.45
2024-04-30T00:59:53.222Z,16.36
2024-04-30T01:05:01.999Z,16.29
2024-04-30T01:10:04.082Z,16.45
2024-04-30T01:15:06.583Z,16.52
2024-04-30T01:20:08.855Z,16.44
2024-04-30T01:25:10.927Z,16.22
2024-04-30T01:30:12.601Z,16.28
2024-04-30T01:35:14.358Z,16.29
2024-04-30T01:40:16.338Z,16.25
2024-04-30T01:45:18.514Z,16.32
2024-04-30T01:50:20.091Z,16.26
2024-04-30T01:55:22.412Z,16.61
2024-04-30T02:00:24.049Z,16.34
2024-04-30T02:05:26.082Z,16.40
2024-04-30T02:10:27.933Z,16.04
2024-04-30T02:15:29.589Z,15.92
2024-04-30T02:20:31.429Z,16.30
2024-04-30T02:25:33.303Z,15.93
2024-04-30T02:30:54.004Z,15.84
2024-04-30T02:35:55.672Z,15.73
2024-04-30T02:40:57.608Z,15.53
2024-04-30T02:45:59.225Z,15.61
2024-04-30T02:51:04.504Z,16.05
2024-04-30T02:56:06.655Z,15.81
2024-04-30T03:01:12.558Z,15.63
2024-04-30T03:06:14.224Z,15.55
2024-04-30T03:11:15.855Z,15.48
2024-04-30T03:16:17.686Z,15.40
2024-04-30T03:21:19.695Z,15.20
2024-04-30T03:26:21.262Z,15.23
2024-04-30T03:31:23.309Z,15.18
2024-04-30T03:36:24.950Z,15.13
2024-04-30T03:41:26.971Z,15.41
2024-04-30T03:46:28.694Z,15.07
2024-04-30T03:51:30.306Z,15.01
2024-04-30T03:56:32.453Z,14.91
2024-04-30T04:01:34.978Z,14.75
2024-04-30T04:06:36.983Z,14.57
2024-04-30T04:11:57.199Z,14.48
2024-04-30T04:16:59.234Z,14.44
2024-04-30T04:22:01.471Z,14.56
2024-04-30T04:27:04.515Z,14.70
2024-04-30T04:32:07.477Z,14.84
2024-04-30T04:37:09.519Z,14.88
2024-04-30T04:42:11.135Z,14.77
2024-04-30T04:47:12.840Z,14.65
2024-04-30T04:52:14.401Z,15.17
2024-04-30T04:57:16.021Z,15.08
2024-04-30T05:02:17.713Z,15.10
2024-04-30T05:07:19.418Z,15.20
2024-04-30T05:12:20.989Z,15.47
2024-04-30T05:17:22.655Z,15.24
2024-04-30T05:22:24.232Z,15.36
2024-04-30T05:27:25.818Z,15.08
2024-04-30T05:32:30.368Z,15.37
2024-04-30T05:37:32.293Z,15.53
2024-04-30T05:42:34.144Z,15.95
2024-04-30T05:47:35.797Z,15.81
2024-04-30T05:52:37.795Z,16.27
2024-04-30T05:57:39.763Z,16.28
2024-04-30T06:02:41.757Z,16.49
2024-04-30T06:07:43.539Z,16.66
2024-04-30T06:12:45.570Z,16.91
2024-04-30T06:17:47.751Z,17.18
2024-04-30T06:22:49.531Z,17.41
2024-04-30T06:27:52.310Z,17.71
2024-04-30T06:32:54.255Z,17.98
2024-04-30T06:37:56.372Z,18.37
2024-04-30T06:42:58.087Z,18.73
2024-04-30T06:48:00.177Z,18.98
2024-04-30T06:53:02.095Z,19.50
2024-04-30T06:58:11.358Z,19.39
2024-04-30T07:03:14.088Z,20.07
2024-04-30T07:08:15.986Z,20.36
2024-04-30T07:13:17.597Z,20.91
2024-04-30T07:18:19.322Z,21.24
2024-04-30T07:23:21.520Z,21.70
2024-04-30T07:28:23.168Z,21.99
2024-04-30T07:33:24.804Z,22.41
2024-04-30T07:38:26.433Z,22.31
2024-04-30T07:43:28.093Z,22.57
2024-04-30T08:03:03.021Z,23.98
2024-04-30T08:08:05.347Z,24.37
2024-04-30T08:13:13.325Z,24.64
2024-04-30T08:18:15.427Z,24.81
2024-04-30T08:23:17.202Z,24.90
2024-04-30T08:28:19.233Z,25.07
2024-04-30T08:33:21.973Z,25.20
2024-04-30T08:38:24.142Z,25.43
2024-04-30T08:43:27.510Z,25.39
2024-04-30T08:48:32.115Z,25.21
2024-04-30T08:53:37.889Z,24.95
2024-04-30T08:58:40.202Z,25.28
2024-04-30T09:03:44.199Z,25.22
2024-04-30T09:08:48.391Z,25.13
2024-04-30T09:13:52.239Z,25.00
2024-04-30T09:18:55.063Z,25.39
2024-04-30T09:24:07.939Z,25.13
2024-04-30T09:29:09.944Z,25.48
2024-04-30T09:34:11.997Z,25.60
2024-04-30T09:39:14.583Z,25.73
2024-04-30T09:44:16.612Z,25.66
2024-04-30T09:49:18.997Z,25.66
2024-04-30T09:54:23.973Z,25.92
2024-04-30T09:59:26.696Z,26.04
2024-04-30T10:04:30.575Z,25.93
2024-04-30T10:09:32.287Z,26.27
2024-04-30T10:14:34.233Z,26.53
2024-04-30T10:19:48.612Z,26.64
2024-04-30T10:24:50.229Z,26.97
2024-04-30T10:29:52.430Z,27.63
2024-04-30T10:34:58.006Z,27.82
2024-04-30T10:40:09.721Z,28.30
2024-04-30T10:45:22.500Z,28.40
2024-04-30T10:50:24.360Z,28.66
2024-04-30T10:55:26.085Z,28.49
2024-04-30T11:00:27.856Z,28.40
2024-04-30T11:05:29.702Z,28.41
2024-04-30T11:10:36.257Z,28.34
2024-04-30T11:15:38.291Z,28.17
2024-04-30T11:20:40.073Z,28.42
2024-04-30T11:25:42.114Z,28.30
2024-04-30T11:30:44.226Z,28.44
2024-04-30T11:35:46.228Z,28.18
2024-04-30T11:40:48.277Z,28.34
2024-04-30T11:45:49.996Z,28.16
2024-04-30T11:50:51.988Z,28.20
2024-04-30T11:55:54.306Z,28.07
2024-04-30T12:00:56.551Z,28.26
2024-04-30T12:06:00.459Z,28.33
2024-04-30T12:11:02.398Z,28.33
2024-04-30T12:16:06.046Z,28.36
2024-04-30T12:21:07.919Z,28.41
2024-04-30T12:26:09.552Z,28.79
2024-04-30T12:31:11.247Z,29.24
2024-04-30T12:36:13.222Z,29.89
2024-04-30T12:41:15.200Z,29.94
2024-04-30T12:46:16.825Z,30.92
2024-04-30T12:51:19.094Z,29.94
2024-04-30T12:56:21.047Z,30.37
2024-04-30T13:01:25.491Z,30.36
2024-04-30T13:06:27.887Z,30.33
2024-04-30T13:11:30.010Z,30.61
2024-04-30T13:16:32.317Z,30.96
2024-04-30T13:21:36.488Z,30.94
2024-04-30T13:26:38.081Z,31.01
2024-04-30T13:31:46.358Z,30.58
2024-04-30T13:36:48.130Z,29.99
2024-04-30T13:41:49.721Z,29.93
2024-04-30T13:46:51.418Z,29.86
2024-04-30T13:51:53.059Z,29.73
2024-04-30T13:56:54.799Z,30.31
2024-04-30T14:01:56.591Z,30.96
2024-04-30T14:06:58.434Z,30.90
2024-04-30T14:12:02.243Z,31.14
2024-04-30T14:17:04.996Z,31.14
2024-04-30T14:22:06.800Z,30.93
2024-04-30T14:27:08.511Z,31.36
2024-04-30T14:32:10.826Z,31.14
2024-04-30T14:37:12.927Z,31.74
2024-04-30T14:42:16.885Z,31.15
2024-04-30T14:47:20.175Z,31.75
2024-04-30T14:52:21.915Z,31.19
2024-04-30T14:57:23.630Z,29.98
2024-04-30T15:02:25.231Z,30.57
2024-04-30T15:07:27.003Z,29.78
2024-04-30T15:12:30.868Z,30.85
2024-04-30T15:17:32.892Z,30.25
2024-04-30T15:22:35.200Z,30.32
2024-04-30T15:27:37.158Z,30.16
2024-04-30T15:32:46.176Z,30.50
2024-04-30T15:37:51.071Z,30.35
2024-04-30T15:42:53.072Z,30.27
2024-04-30T15:47:55.423Z,29.92
2024-04-30T15:52:57.449Z,29.35
2024-04-30T15:57:59.381Z,29.16
2024-04-30T16:03:01.757Z,28.95
2024-04-30T16:08:03.539Z,29.07
2024-04-30T16:13:05.456Z,27.97
2024-04-30T16:18:07.707Z,28.68
2024-04-30T16:23:09.988Z,28.91
2024-04-30T16:28:11.816Z,28.52
2024-04-30T16:33:14.056Z,28.57
2024-04-30T16:38:16.023Z,28.50
2024-04-30T16:43:17.801Z,28.58
2024-04-30T16:48:19.846Z,27.99
2024-04-30T16:53:21.909Z,28.62
2024-04-30T16:58:23.814Z,28.72
2024-04-30T17:03:25.490Z,28.66
2024-04-30T17:08:28.764Z,28.17
2024-04-30T17:13:30.642Z,28.28
2024-04-30T17:18:32.578Z,28.26
2024-04-30T17:23:34.392Z,27.95
2024-04-30T17:28:36.105Z,28.29
2024-04-30T17:33:38.642Z,28.01
2024-04-30T17:38:40.467Z,28.08
2024-04-30T17:43:42.087Z,27.89
2024-04-30T17:48:44.197Z,27.77
2024-04-30T17:53:46.818Z,27.72
2024-04-30T17:58:48.767Z,27.73
2024-04-30T18:03:52.211Z,27.54
2024-04-30T18:08:58.367Z,27.45
2024-04-30T18:14:01.055Z,27.02
2024-04-30T18:19:03.121Z,27.15
2024-04-30T18:24:07.321Z,26.94
2024-04-30T18:29:09.989Z,26.68
2024-04-30T18:34:11.801Z,26.54
2024-04-30T18:39:15.849Z,26.54
2024-04-30T18:44:17.537Z,26.38
2024-04-30T18:49:19.709Z,26.18
2024-04-30T18:54:22.479Z,25.95
2024-04-30T18:59:24.635Z,25.78
2024-04-30T19:04:26.418Z,25.53
2024-04-30T19:09:28.479Z,25.36
2024-04-30T19:14:30.212Z,25.13
2024-04-30T19:19:32.336Z,24.92
2024-04-30T19:24:34.643Z,24.84
2024-04-30T19:29:38.093Z,24.69
2024-04-30T19:34:40.244Z,24.53
2024-04-30T19:39:42.319Z,24.40
2024-04-30T19:44:43.973Z,24.25
2024-04-30T19:49:45.668Z,24.24
2024-04-30T19:54:47.604Z,24.09
2024-04-30T19:59:49.600Z,24.06
2024-04-30T20:04:51.288Z,23.89
2024-04-30T20:09:53.339Z,23.73
2024-04-30T20:14:58.290Z,23.62
2024-04-30T20:20:00.676Z,23.52
2024-04-30T20:25:02.656Z,23.41
2024-04-30T20:30:07.736Z,23.41
2024-04-30T20:35:10.700Z,23.28
2024-04-30T20:40:12.373Z,23.21
2024-04-30T20:45:14.508Z,23.10
2024-04-30T20:50:16.150Z,23.01
2024-04-30T20:55:17.726Z,22.94
2024-04-30T21:00:19.706Z,22.84
2024-04-30T21:05:21.656Z,22.81
2024-04-30T21:10:23.644Z,22.61
2024-04-30T21:15:25.787Z,22.56
2024-04-30T21:20:27.436Z,22.46
2024-04-30T21:25:29.121Z,22.44
2024-04-30T21:30:30.787Z,22.42
2024-04-30T21:35:32.490Z,22.29
2024-04-30T21:40:34.175Z,22.26
2024-04-30T21:45:35.881Z,22.24
2024-04-30T21:50:37.815Z,22.12
2024-04-30T21:55:39.517Z,21.99
2024-04-30T22:00:41.488Z,21.87
2024-04-30T22:05:43.135Z,21.83
2024-04-30T22:10:45.003Z,21.64
2024-04-30T22:15:46.720Z,21.44
2024-04-30T22:20:48.759Z,21.24
2024-04-30T22:25:50.876Z,21.38
2024-04-30T22:30:52.563Z,21.44
2024-04-30T22:35:54.323Z,21.48
2024-04-30T22:40:56.689Z,21.53
2024-04-30T22:45:58.804Z,21.57
2024-04-30T22:51:00.452Z,21.51
2024-04-30T22:56:03.844Z,21.38
2024-04-30T23:01:05.659Z,21.39
2024-04-30T23:06:07.477Z,21.29
2024-04-30T23:11:09.861Z,21.20
2024-04-30T23:16:11.494Z,21.01
2024-04-30T23:21:13.422Z,21.05
2024-04-30T23:26:18.523Z,20.98
2024-04-30T23:31:20.163Z,20.91
2024-04-30T23:36:21.980Z,20.78
2024-04-30T23:41:24.020Z,20.61
2024-04-30T23:46:25.620Z,20.53
2024-04-30T23:51:27.261Z,20.57
2024-04-30T23:56:28.866Z,20.56
